Nearby METAR Reports

 

EGTE - Exeter Airport, United Kingdom
Distance from station: S 19km
Updated: 10/08/2022 14:50
Clear
Clear
 Wind from SE
Wind: SE 17 km/h
Temperature: 30°C
Dew Point: 12°C
Humidity: 33%
Barometer: 1024 hPa
Summary: Clear
Visibility: greater than 10 km
2022/08/10 13:50 EGTE 101350Z 14009KT 100V200 CAVOK 30/12 Q1024
EGDY - Yeovilton (navy), United Kingdom
Distance from station: ENE 55km
Updated: 10/08/2022 14:50
Clear
Clear
 Wind from E
Wind: E 13 km/h
Temperature: 30°C
Dew Point: 10°C
Humidity: 29%
Barometer: 1023 hPa
Summary: Clear
Visibility: greater than 10 km
2022/08/10 13:50 EGDY 101350Z 08007KT CAVOK 30/10 Q1023 NOSIG RMK BLU BLU
 
EGFF - Cardiff-Wales Ar, United Kingdom
Distance from station: N 56km
Updated: 10/08/2022 14:50
Clear
Clear
 Wind from E
Wind: E 17 km/h
Temperature: 29°C
Dew Point: 5°C
Humidity: 22%
Barometer: 1024 hPa
Clouds: Clear
Visibility: 10 km
2022/08/10 13:50 EGFF 101350Z AUTO 08009KT 050V110 9999 NCD 29/05 Q1024
EGDX - St Athan Raf, United Kingdom
Distance from station: N 58km
Updated: 01/04/2019 13:50
NOT Current
Clear
Clear
 Wind from E
Wind: E 15 km/h
Temperature: 11°C
Dew Point: 5°C
Humidity: 67%
Barometer: 1019 hPa
Clouds: Clear
Visibility: 10 km
2019/04/01 12:50 EGDX 011250Z AUTO 10008KT 9999 NCD 11/05 Q1019
 
EGGD - Bristol/Lulsgate, United Kingdom
Distance from station: NE 71km
Updated: 10/08/2022 14:50
Clear
Clear
 Wind from ENE
Wind: ENE 15 km/h
Temperature: 29°C
Dew Point: 8°C
Humidity: 27%
Barometer: 1025 hPa
Clouds: Clear
Visibility: 10 km
2022/08/10 13:50 EGGD 101350Z AUTO 06008KT 010V110 9999 NCD 29/08 Q1025